時事

星宇航空6/6宿霧事件: A321 機隊少一台 改表到17日 46班航班約6624人受影響

事實 / Facts

  • 機身編號:B-58201 (星宇第一台A321)(圖片來源:星宇航空
  • 2024/6/6 JX781從台北飛往宿霧,回程JX782班機取消:發生什麼問題目前沒有官方說法
  • 目前透過FR24飛行記錄得知,該飛機已經滯留宿霧三晚後,在6/9號以全程低空一萬英尺高度而因為對地速度接近280海浬,
    • 推論:這樣的飛行高度跟速度代表狀況並沒有解除,飛行在客艙不須加壓的一萬英尺高度飛回台灣(飛機在客艙失壓也是會先下到這個高度),另外所以合理推論機輪沒有收起,因為有放輪的IAS 指示空速最高為280海浬,採取全程放輪的姿態飛回桃園,飛機上應該也不會載客(待確認),屬於非常特殊飛行狀況。
    • 實際狀況等候星宇航空相關新聞稿。目前星宇沒有透過任何管道針對此一事件發言。
  • B-58201 已經在6/18完成修復投入營運,影響航班營運時間從6號到17日。
2024,a321,B-58201,STARLUX,延誤,星宇航空,機隊運作,檢修,航班取消 @傑西大叔 x 這裡胡說
6/6 JX782航班取消
2024,a321,B-58201,STARLUX,延誤,星宇航空,機隊運作,檢修,航班取消 @傑西大叔 x 這裡胡說
6/9 宿霧飛回台北的飛行路徑
2024,a321,B-58201,STARLUX,延誤,星宇航空,機隊運作,檢修,航班取消 @傑西大叔 x 這裡胡說
6/9 回程返回台北的時候高度保持一萬英尺

宿霧機場6/6天氣狀況

宿霧機場 RPVM 部分時段機場預報有出現積雨雲(CB),飛機降落時間為當地時間早上九點半為UTC時間的01:30Z。

060400Z 06007KT 8000 SCT018CB BKN250 32/25 Q1011 NOSIG RMK A2985 CB S-N/LHAQ=
060300Z 05008KT 8000 SCT018CB BKN250 32/25 Q1012 NOSIG RMK A2988 CB SW, W, NW-N/LHAQ=
060200Z 12004KT 050V170 8000 SCT018CB BKN250 32/25 Q1012 NOSIG RMK A2988 CB NW-N/LHAQ=
060100Z 06006KT 040V100 6000 FEW018CB BKN250 31/26 Q1013 NOSIG RMK A2991 CB W-N LHAQ=
060000Z VRB02KT 5000 FEW020 BKN100 29/26 Q1013 NOSIG RMK A2991=

星宇改表通告資訊

06/07調整8到10日航班起飛時間

2024,a321,B-58201,STARLUX,延誤,星宇航空,機隊運作,檢修,航班取消 @傑西大叔 x 這裡胡說

以ODS系統查詢航班相關資料
原訂JX870的起飛時間從2024/5/26,一路到2025/03/01 的出發時間都是1200起飛。

2024,a321,B-58201,STARLUX,延誤,星宇航空,機隊運作,檢修,航班取消 @傑西大叔 x 這裡胡說
2024,a321,B-58201,STARLUX,延誤,星宇航空,機隊運作,檢修,航班取消 @傑西大叔 x 這裡胡說
透過ODS可以看到沖繩已經陸續改時到十六號
2024,a321,B-58201,STARLUX,延誤,星宇航空,機隊運作,檢修,航班取消 @傑西大叔 x 這裡胡說
JX838原始飛行時間為1440-1830

06/11 發出的通告改表時間

2024,a321,B-58201,STARLUX,延誤,星宇航空,機隊運作,檢修,航班取消 @傑西大叔 x 這裡胡說

6/13 增加6/17航班的時間改表

2024,a321,B-58201,STARLUX,延誤,星宇航空,機隊運作,檢修,航班取消 @傑西大叔 x 這裡胡說

A321機隊相關航班受到延誤狀況

  • 僅列出FR24跳紅字(預訂抵達時間延誤超過45MIN以上的航班)
    • 表格更新:2024/06/12 1900L
    • 實際的起飛降落時間請以星宇航空公告的時間為主。
  • 代表未來只要這台飛機沒有完成檢修投入服務,就有可能會影響A321機隊的運作,這也代表目前星宇的A321調度是相對吃緊的(類似的狀況之前虎航也有發生過)
    • 可以看的出來星宇的簽派,盡量把影響範圍控制住,讓他不要影響到其他航班,這點還是要跟辛苦的簽派跟派遣人員辛苦了。
    • 星宇機隊目前總共有13台A321投入營運,機身編號為B-58201至B-58213。
    • 以A321經濟艙滿載180人,八成的載客率計算(星宇四月份載客率81.6%),目前影響旅客粗估約為25班次,3600人(粗估非正確數字)
  • 可能會受到影響的朋友
    • 星宇有陸續發送通知給旅客,請注意訊息、訂位記錄,如果有影響到行程,可以考慮聯絡星宇航空詢問是否可以退票、更改、或者改簽。
      • 其他使用A330/A350的航線不受影響。
      • 目前已經確定有修改的航線為:沖繩(但不是每天)、名古屋、以及一部份的清邁。
      • 星宇陸續調整班表時間(七號公布班表調整十號,十一號公布班表調整到十六號),跟購票當下的航班時間點已經有落差,實屬造成旅客行程上的影響。
    • 以下表格時間為FlightRadar 24 紀錄的起降時間(並非航空公司用的BLOCK TIME)
      • 為什麼會FR24的起降時間跟航空公司的開出來的時間有時間差,請參考另外一篇文章的說明
      • 如果有保險申請的需求,要特別注意保險相關的證明開的是原始的起飛時間還是修改後的起飛時間,部分保險公司可以接受以機票時間跟實際起飛時間的差異作為計算,因為延誤時間都還在四個小時內,所以大部分都不能申請理賠。
      • 各保險理賠的部分是『起飛時間』超過四個小時以上。
        • 信用卡理賠主要是在延誤這段間的餐食跟交通費用。
        • 額外購買的不便險:目前大部分都是定額理賠。
        • 申請星宇航空延誤證明(星宇航空航班延誤證明申請連結,另外一個是到離場證明申請
日期航線表定時間
改表時間(部分航班)
實際起降時間(FR24)
延誤分鐘數備註
6/601. TPE-SGN JX7131345-1605
1503-1708
63B-58211
6/602. SGN-TPE JX7141705-2130
1834-2240
70B-58211
6/603. TPE-NGO JX8381440-1830
1709-2032
122B-58204
6/604. NGO-TPE JX8391930-2135
2134-2308
93B-58204
6/705. TPE-NGO JX8381440-1830
1743-2108
158B-58207
6/706. NGO-TPE JX8391930-2135
2351-0135
240B-58207
6/707. CRK-TPE JX7921950-2150
2059-2247
57B-58205
6/808. SGN-TPE JX7141755-2225
1904-2311
46B-58207
6/809. TPE-NGO JX8381440-1830
1734-2058
148B-58205
6/910. TPE-OKA JX8701200-1425
1428-1636
131B-58207
6/911. OKA-TPE JX8711535-1605
1815-1825
140B-58207
6/912. TPE-NGO JX8381440-1830
1753-2121
171B-58205
6/913. NGO-TPE JX8391930-2135
2238-0019
164B-58205
6/1014. TPE-OKA JX8701200-1425
1415-1640
1456-1701
156B-58207
6/1015. OKA-TPE JX8711535-1750
1750-1820
1830-1839
49B-58207
6/1016. TPE-NGO JX8381440-1830
1600-1950
1630-1952
82B-58205
6/1017. NGO-TPE JX8391930-2135
2140-2345
2111-2253
78B-58205
6/1118. TPE-NGO JX8381440-1830
1650-2040
1754-2120
170B-58203
6/1119. NGO-TPE JX8391930-2135
2140-2345
2232-0016
161B-58203
6/1120. TPE-OKA JX8701200-1425
1415-1640
1457-1703
158B-58207
6/1121. OKA-TPE JX8711535-1750
1750-1820
1840-1856
66B-58207
6/1222. TPE-NGO JX8381440-1830
1705-2055
1743-2105
155B-58204
6/1223. NGO-TPE JX8391930-2135
2155-2355
2218-0001
146B-58204
6/1224. TPE-CNX JX7511320-1615
1415-1710
1442-1706
61B-58212
6/1225. CNX-TPE JX7521715-2215
1810-2310
1821-2246
31B-58212
6/1326. TPE-OKA JX8701200-1425
1415-1640
1527-1727
182B-58207
6/1327. OKA-TPE JX8711535-1750
1750-1820
1909-1916
86B-58207
6/1328. TPE-NGO JX8381440-1830
1650-2040
1744-2111
161B-58210
6/1329. NGO-TPE JX8391930-2135
2140-2345
2224-0010
155B-58210
6/1430. TPE-NGO JX8381440-1830
1705-2055
1746-2111
161B-58209
6/1431. NGO-TPE JX8391930-2135
2155-2355
2233-0015
160B-58209
6/15KMJ-TPE JX847
本航班應受天候航路管制影響
1200-1315
1300-1405
60B-58204
6/1532. TPE-OKA JX8701200-1425
1415-1640
1524-1729
184B-58204
6/1533. OKA-TPE JX8711535-1750
1750-1820
1926-1930
100B-58204
6/1534. TPE-NGO JX8381440-1830
1650-2040
1749-2111
161B-58205
6/1535. NGO-TPE JX8391930-2135
2140-2345
2222-0006
151B-58205
6/15FUK-TPE JX841
本航班應受天候航路管制影響
1410-1535
1511-1626
51B-58210
6/15TPE-MFM JX205
本航班應受天候航路管制影響
1635-1820
1739-1916
56B-58210
6/1636. TPE-OKA JX870
本日航班調度
有受到沖繩天候影響延誤
1200-1425
1410-1635
1520-1727
182B-58205
6/1637. OKA-TPE JX871
本日航班調度
有受到沖繩天候影響延誤
1535-1750
1745-1815
1852-1859
69B-58205
6/1638. TPE-NGO JX8381440-1830
1650-2040
1805-2127
177B-58211
6/1639. NGO-TPE JX8391930-2135
2140-2345
2240-0017
162B-58211
6/1640. TPE-SGN JX7131440-1705
1610-1816
71B-58206
6/1641. SGN-TPE JX7141805-2225
1934-2234
69B-58206
6/1742. TPE-OKA JX8701200-1425
1410-1635
1440-1656
151B-58204
6/1743. OKA-TPE JX8711535-1750
1745-1815
1835-1841
51B-58204
6/1745. TPE-NGO JX8381440-1830
1600-1950
1625-1950
80B-58205
6/1746. NGO-TPE JX8391930-2135
2050-2255
2113-2152
17B-58205

最新新聞

傑西大叔

一個對客機有著無比熱情的旅人
一個對電子產品瘋狂的科技宅
一個被說對食物才有愛的吃貨
老本行是資訊產業,不小心跨足PODCAST圈,又是個器材控
骨子裡流著旅行人的血液,長著飛機人的翅膀
飛行超過125萬公里,繞了31圈的地球,65個機場,148條航線
能感受到各種隱藏在五感細節小巧思

發佈留言

發佈留言必須填寫的電子郵件地址不會公開。 必填欄位標示為 *

Back to top button
Blogimove部落格搬家技術服務